createdAt,value
2022-08-14T00:01:11.549Z,19.09
2022-08-14T00:03:40.759Z,19.03
2022-08-14T00:06:13.977Z,18.97
2022-08-14T00:08:52.197Z,18.91
2022-08-14T00:11:19.797Z,18.89
2022-08-14T00:13:52.824Z,18.76
2022-08-14T00:16:41.120Z,18.66
2022-08-14T00:19:19.339Z,18.65
2022-08-14T00:21:52.177Z,18.58
2022-08-14T00:24:28.335Z,18.50
2022-08-14T00:27:01.848Z,18.46
2022-08-14T00:29:32.992Z,18.44
2022-08-14T00:32:52.885Z,18.39
2022-08-14T00:34:53.736Z,18.31
2022-08-14T00:37:20.788Z,18.31
2022-08-14T00:39:47.596Z,18.37
2022-08-14T00:42:21.154Z,18.27
2022-08-14T00:45:11.382Z,18.23
2022-08-14T00:47:43.219Z,18.28
2022-08-14T00:50:17.621Z,18.33
2022-08-14T00:52:47.441Z,18.30
2022-08-14T00:55:20.018Z,18.23
2022-08-14T00:58:08.079Z,18.34
2022-08-14T01:00:45.527Z,18.19
2022-08-14T01:03:19.292Z,18.17
2022-08-14T01:05:51.618Z,18.19
2022-08-14T01:08:57.511Z,18.28
2022-08-14T01:11:08.351Z,18.33
2022-08-14T01:13:42.992Z,18.40
2022-08-14T01:16:13.986Z,18.33
2022-08-14T01:19:02.470Z,18.20
2022-08-14T01:21:34.815Z,18.13
2022-08-14T01:24:24.734Z,18.03
2022-08-14T01:27:00.748Z,18.03
2022-08-14T01:29:58.860Z,17.98
2022-08-14T01:32:22.798Z,17.99
2022-08-14T01:35:17.569Z,18.00
2022-08-14T01:37:44.592Z,18.03
2022-08-14T01:40:15.505Z,17.99
2022-08-14T01:42:47.165Z,17.97
2022-08-14T01:45:17.956Z,17.91
2022-08-14T01:47:52.372Z,17.88
2022-08-14T01:50:30.774Z,17.85
2022-08-14T01:53:01.259Z,17.82
2022-08-14T01:55:32.359Z,17.83
2022-08-14T01:58:01.350Z,17.76
2022-08-14T02:00:48.170Z,17.74
2022-08-14T02:03:16.246Z,17.65
2022-08-14T02:05:43.564Z,17.56
2022-08-14T02:08:10.630Z,17.52
2022-08-14T02:10:46.827Z,17.51
2022-08-14T02:13:16.058Z,17.54
2022-08-14T02:15:43.852Z,17.59
2022-08-14T02:18:11.988Z,17.57
2022-08-14T02:20:42.075Z,17.63
2022-08-14T02:23:09.150Z,17.53
2022-08-14T02:25:36.422Z,17.39
2022-08-14T02:28:22.971Z,17.32
2022-08-14T02:30:52.289Z,17.20
2022-08-14T02:33:19.094Z,17.25
2022-08-14T02:35:53.081Z,17.26
2022-08-14T02:38:29.512Z,17.26
2022-08-14T02:40:58.926Z,17.22
2022-08-14T02:43:36.584Z,17.17
2022-08-14T02:46:04.309Z,17.14
2022-08-14T02:49:01.842Z,17.01
2022-08-14T02:51:23.351Z,16.94
2022-08-14T02:53:51.888Z,16.98
2022-08-14T02:56:30.210Z,17.11
2022-08-14T02:59:09.483Z,17.11
2022-08-14T03:01:43.460Z,17.05
2022-08-14T03:04:17.535Z,16.98
2022-08-14T03:06:56.927Z,17.02
2022-08-14T03:09:25.584Z,17.01
2022-08-14T03:12:09.228Z,17.02
2022-08-14T03:14:43.530Z,17.08
2022-08-14T03:17:14.001Z,17.12
2022-08-14T03:19:44.218Z,17.13
2022-08-14T03:22:17.681Z,17.16
2022-08-14T03:24:44.636Z,17.17
2022-08-14T03:27:14.182Z,17.19
2022-08-14T03:29:40.945Z,17.15
2022-08-14T03:32:08.307Z,17.12
2022-08-14T03:34:48.419Z,17.13
2022-08-14T03:37:38.432Z,17.12
2022-08-14T03:40:12.330Z,17.14
2022-08-14T03:42:45.327Z,17.16
2022-08-14T03:45:19.530Z,17.23
2022-08-14T03:48:01.702Z,17.20
2022-08-14T03:50:31.688Z,17.11
2022-08-14T03:53:03.432Z,17.00
2022-08-14T03:55:31.080Z,16.95
2022-08-14T03:58:00.536Z,16.99
2022-08-14T04:00:42.649Z,16.93
2022-08-14T04:03:23.536Z,16.92
2022-08-14T04:05:51.454Z,16.90
2022-08-14T04:08:30.037Z,16.87
2022-08-14T04:11:00.994Z,16.80
2022-08-14T04:13:31.761Z,16.75
2022-08-14T04:16:06.782Z,16.75
2022-08-14T04:18:45.904Z,16.75
2022-08-14T04:21:14.840Z,16.74
2022-08-14T04:23:43.828Z,16.71
2022-08-14T04:26:14.809Z,16.75
2022-08-14T04:29:08.113Z,16.73
2022-08-14T04:33:10.598Z,16.83
2022-08-14T04:34:28.297Z,16.94
2022-08-14T04:37:21.963Z,17.03
2022-08-14T04:40:08.825Z,17.14
2022-08-14T04:42:54.294Z,17.19
2022-08-14T04:45:23.754Z,17.28
2022-08-14T04:48:10.790Z,17.36
2022-08-14T04:50:54.315Z,17.47
2022-08-14T04:53:26.325Z,17.58
2022-08-14T04:56:01.214Z,17.73
2022-08-14T04:58:32.773Z,17.84
2022-08-14T05:01:02.678Z,18.00
2022-08-14T05:03:32.654Z,18.13
2022-08-14T05:06:02.231Z,18.10
2022-08-14T05:08:50.739Z,18.20
2022-08-14T05:11:19.935Z,18.38
2022-08-14T05:14:33.676Z,18.49
2022-08-14T05:16:33.382Z,18.74
2022-08-14T05:19:24.285Z,18.98
2022-08-14T05:21:56.892Z,19.21
2022-08-14T05:24:25.825Z,19.51
2022-08-14T05:26:52.640Z,19.79
2022-08-14T05:29:19.988Z,20.08
2022-08-14T05:31:47.363Z,20.34
2022-08-14T05:34:14.006Z,20.59
2022-08-14T05:36:42.866Z,20.77
2022-08-14T05:39:17.681Z,20.99
2022-08-14T05:41:53.414Z,21.17
2022-08-14T05:44:20.954Z,21.12
2022-08-14T05:46:47.595Z,21.36
2022-08-14T05:49:14.477Z,21.72
2022-08-14T05:51:41.330Z,21.99
2022-08-14T05:54:13.697Z,22.26
2022-08-14T05:56:55.124Z,22.61
2022-08-14T05:59:30.082Z,22.82
2022-08-14T06:02:05.864Z,23.02
2022-08-14T06:04:32.788Z,23.25
2022-08-14T06:06:59.570Z,23.38
2022-08-14T06:09:26.185Z,23.49
2022-08-14T06:11:53.260Z,23.61
2022-08-14T06:14:24.037Z,23.98
2022-08-14T06:16:52.944Z,24.22
2022-08-14T06:19:20.440Z,24.44
2022-08-14T06:21:54.392Z,24.71
2022-08-14T06:24:24.812Z,24.83
2022-08-14T06:26:54.241Z,25.10
2022-08-14T06:29:23.764Z,25.20
2022-08-14T06:31:54.599Z,25.13
2022-08-14T06:35:10.433Z,25.01
2022-08-14T06:37:13.673Z,25.23
2022-08-14T06:39:44.296Z,25.31
2022-08-14T06:42:32.287Z,25.62
2022-08-14T06:44:58.420Z,25.58
2022-08-14T06:47:25.145Z,25.76
2022-08-14T06:49:57.720Z,26.03
2022-08-14T06:52:25.058Z,26.14
2022-08-14T06:54:51.970Z,26.32
2022-08-14T06:57:19.272Z,26.21
2022-08-14T06:59:48.277Z,25.94
2022-08-14T07:02:35.877Z,26.17
2022-08-14T07:05:23.399Z,26.04
2022-08-14T07:07:51.267Z,26.39
2022-08-14T07:10:17.910Z,26.42
2022-08-14T07:12:56.686Z,26.37
2022-08-14T07:15:28.788Z,26.92
2022-08-14T07:17:55.879Z,27.16
2022-08-14T07:20:31.126Z,27.12
2022-08-14T07:23:07.470Z,27.29
2022-08-14T07:25:42.309Z,27.34
2022-08-14T07:28:12.825Z,27.87
2022-08-14T07:30:51.019Z,28.05
2022-08-14T07:33:20.781Z,28.33
2022-08-14T07:35:59.129Z,28.69
2022-08-14T07:38:31.988Z,28.74
2022-08-14T07:41:02.544Z,29.19
2022-08-14T07:43:29.807Z,29.88
2022-08-14T07:45:56.465Z,29.89
2022-08-14T07:48:25.398Z,29.95
2022-08-14T07:50:55.295Z,30.08
2022-08-14T07:53:26.073Z,29.49
2022-08-14T07:56:08.784Z,29.78
2022-08-14T07:58:38.966Z,29.98
2022-08-14T08:01:19.980Z,30.02
2022-08-14T08:03:49.594Z,29.92
2022-08-14T08:06:18.638Z,29.51
2022-08-14T08:09:00.978Z,28.99
2022-08-14T08:11:35.054Z,28.45
2022-08-14T08:14:10.706Z,28.37
2022-08-14T08:16:44.788Z,28.23
2022-08-14T08:19:14.341Z,28.57
2022-08-14T08:21:43.731Z,28.18
2022-08-14T08:24:14.975Z,28.09
2022-08-14T08:26:45.510Z,27.99
2022-08-14T08:29:22.534Z,28.58
2022-08-14T08:31:55.447Z,29.15
2022-08-14T08:34:23.766Z,29.65
2022-08-14T08:36:52.704Z,29.84
2022-08-14T08:39:22.847Z,29.82
2022-08-14T08:41:53.602Z,30.51
2022-08-14T08:44:33.004Z,30.85
2022-08-14T08:47:06.776Z,31.00
2022-08-14T08:49:48.831Z,31.13
2022-08-14T08:52:31.394Z,30.93
2022-08-14T08:54:59.375Z,30.88
2022-08-14T08:57:27.462Z,30.73
2022-08-14T08:59:55.127Z,31.03
2022-08-14T09:02:22.699Z,31.47
2022-08-14T09:05:03.871Z,31.89
2022-08-14T09:07:31.448Z,31.63
2022-08-14T09:09:59.874Z,31.51
2022-08-14T09:12:32.162Z,31.67
2022-08-14T09:15:01.002Z,32.13
2022-08-14T09:17:28.122Z,32.12
2022-08-14T09:19:55.343Z,31.68
2022-08-14T09:22:35.018Z,32.04
2022-08-14T09:25:10.724Z,32.26
2022-08-14T09:27:38.314Z,32.41
2022-08-14T09:30:30.661Z,32.39
2022-08-14T09:33:11.680Z,32.71
2022-08-14T09:35:45.745Z,33.14
2022-08-14T09:38:26.089Z,33.28
2022-08-14T09:41:18.581Z,32.64
2022-08-14T09:44:14.812Z,32.42
2022-08-14T09:46:58.063Z,33.01
2022-08-14T09:49:53.647Z,33.80
2022-08-14T09:52:33.217Z,33.50
2022-08-14T09:55:02.641Z,33.60
2022-08-14T09:57:31.458Z,33.59
2022-08-14T09:59:58.460Z,34.06
2022-08-14T10:02:31.496Z,33.72
2022-08-14T10:05:10.211Z,33.10
2022-08-14T10:07:53.507Z,33.00
2022-08-14T10:10:34.542Z,32.73
2022-08-14T10:13:23.665Z,32.52
2022-08-14T10:15:51.304Z,32.10
2022-08-14T10:18:21.413Z,32.56
2022-08-14T10:20:58.161Z,32.80
2022-08-14T10:23:33.996Z,32.59
2022-08-14T10:26:07.766Z,32.56
2022-08-14T10:29:18.117Z,32.99
2022-08-14T10:31:44.666Z,33.44
2022-08-14T10:34:19.045Z,34.07
2022-08-14T10:36:50.059Z,33.76
2022-08-14T10:39:28.737Z,33.40
2022-08-14T10:42:16.566Z,33.19
2022-08-14T10:44:57.076Z,32.58
2022-08-14T10:47:40.251Z,32.76
2022-08-14T10:50:36.366Z,32.94
2022-08-14T10:53:07.949Z,33.00
2022-08-14T10:55:45.771Z,33.04
2022-08-14T10:58:14.141Z,33.76
2022-08-14T11:00:56.893Z,33.77
2022-08-14T11:03:35.793Z,34.50
2022-08-14T11:06:16.348Z,34.79
2022-08-14T11:08:43.186Z,34.59
2022-08-14T11:11:12.760Z,33.57
2022-08-14T11:13:44.159Z,33.50
2022-08-14T11:16:11.293Z,33.60
2022-08-14T11:18:45.173Z,34.00
2022-08-14T11:21:23.113Z,34.41
2022-08-14T11:23:53.752Z,35.01
2022-08-14T11:26:28.099Z,34.91
2022-08-14T11:29:00.238Z,34.96
2022-08-14T11:31:35.564Z,35.44
2022-08-14T11:34:05.731Z,35.29
2022-08-14T11:37:09.392Z,35.22
2022-08-14T11:39:34.299Z,35.48
2022-08-14T11:42:57.577Z,35.23
2022-08-14T11:44:59.905Z,35.28
2022-08-14T11:47:35.468Z,35.75
2022-08-14T11:50:34.044Z,34.19
2022-08-14T11:53:07.689Z,33.88
2022-08-14T11:55:37.998Z,32.92
2022-08-14T11:58:11.749Z,32.44
2022-08-14T12:00:54.103Z,32.29
2022-08-14T12:03:37.218Z,31.96
2022-08-14T12:06:28.982Z,31.99
2022-08-14T12:09:00.984Z,32.56
2022-08-14T12:11:43.398Z,33.57
2022-08-14T12:14:13.390Z,34.24
2022-08-14T12:17:02.153Z,34.73
2022-08-14T12:19:29.377Z,34.84
2022-08-14T12:22:01.591Z,34.33
2022-08-14T12:24:36.902Z,34.18
2022-08-14T12:27:06.854Z,34.17
2022-08-14T12:29:33.710Z,34.41
2022-08-14T12:32:08.785Z,34.54
2022-08-14T12:34:37.160Z,34.67
2022-08-14T12:37:08.992Z,34.91
2022-08-14T12:39:40.233Z,34.65
2022-08-14T12:42:07.751Z,34.48
2022-08-14T12:44:39.488Z,34.22
2022-08-14T12:47:15.334Z,34.29
2022-08-14T12:49:53.013Z,34.23
2022-08-14T12:52:47.375Z,34.09
2022-08-14T12:55:32.276Z,33.90
2022-08-14T12:58:35.469Z,33.98
2022-08-14T13:01:16.709Z,34.54
2022-08-14T13:03:45.725Z,34.24
2022-08-14T13:06:14.742Z,33.95
2022-08-14T13:08:46.424Z,33.91
2022-08-14T13:11:20.343Z,34.07
2022-08-14T13:13:55.491Z,33.10
2022-08-14T13:16:38.044Z,32.60
2022-08-14T13:19:11.087Z,32.89
2022-08-14T13:22:04.964Z,33.35
2022-08-14T13:24:29.794Z,33.29
2022-08-14T13:27:04.365Z,33.10
2022-08-14T13:29:37.708Z,32.86
2022-08-14T13:32:09.523Z,32.86
2022-08-14T13:34:38.183Z,32.14
2022-08-14T13:37:07.299Z,32.16
2022-08-14T13:39:36.194Z,32.16
2022-08-14T13:42:13.444Z,32.23
2022-08-14T13:44:45.386Z,32.05
2022-08-14T13:47:16.082Z,32.13
2022-08-14T13:49:57.770Z,32.51
2022-08-14T13:52:52.026Z,32.25
2022-08-14T13:55:18.000Z,32.12
2022-08-14T13:57:49.812Z,32.23
2022-08-14T14:00:32.625Z,32.13
2022-08-14T14:03:05.439Z,32.12
2022-08-14T14:05:53.666Z,32.20
2022-08-14T14:08:46.969Z,32.10
2022-08-14T14:11:14.225Z,32.26
2022-08-14T14:13:45.110Z,32.37
2022-08-14T14:16:14.886Z,32.25
2022-08-14T14:18:43.920Z,32.40
2022-08-14T14:21:13.436Z,32.24
2022-08-14T14:23:45.563Z,32.18
2022-08-14T14:26:23.276Z,32.23
2022-08-14T14:28:56.565Z,32.14
2022-08-14T14:31:30.422Z,32.11
2022-08-14T14:34:07.773Z,32.02
2022-08-14T14:36:43.890Z,31.85
2022-08-14T14:39:10.818Z,31.75
2022-08-14T14:41:44.080Z,31.38
2022-08-14T14:44:13.360Z,31.23
2022-08-14T14:46:43.963Z,30.73
2022-08-14T14:49:14.705Z,30.54
2022-08-14T14:51:46.625Z,30.53
2022-08-14T14:54:19.676Z,30.54
2022-08-14T14:56:59.989Z,30.60
2022-08-14T14:59:27.439Z,30.73
2022-08-14T15:02:02.745Z,30.63
2022-08-14T15:04:37.481Z,30.68
2022-08-14T15:07:06.634Z,30.66
2022-08-14T15:09:37.120Z,30.66
2022-08-14T15:12:34.711Z,30.55
2022-08-14T15:14:54.729Z,30.63
2022-08-14T15:17:24.486Z,30.63
2022-08-14T15:19:56.888Z,30.70
2022-08-14T15:22:25.314Z,30.71
2022-08-14T15:24:52.222Z,30.64
2022-08-14T15:27:26.367Z,30.70
2022-08-14T15:29:53.485Z,30.69
2022-08-14T15:32:23.113Z,30.69
2022-08-14T15:34:51.670Z,30.62
2022-08-14T15:37:22.906Z,30.59
2022-08-14T15:39:52.455Z,30.53
2022-08-14T15:42:20.624Z,30.54
2022-08-14T15:44:57.969Z,30.43
2022-08-14T15:47:30.038Z,30.37
2022-08-14T15:50:03.079Z,30.41
2022-08-14T15:52:37.155Z,30.31
2022-08-14T15:55:07.624Z,30.33
2022-08-14T15:57:35.068Z,30.19
2022-08-14T16:00:37.839Z,30.18
2022-08-14T16:03:11.672Z,30.10
2022-08-14T16:05:38.964Z,30.12
2022-08-14T16:08:27.366Z,30.14
2022-08-14T16:10:55.376Z,30.21
2022-08-14T16:13:39.312Z,30.13
2022-08-14T16:16:46.931Z,30.00
2022-08-14T16:19:07.445Z,29.85
2022-08-14T16:21:39.449Z,29.80
2022-08-14T16:24:06.795Z,29.72
2022-08-14T16:26:34.055Z,29.62
2022-08-14T16:29:07.471Z,29.62
2022-08-14T16:31:36.774Z,29.57
2022-08-14T16:34:43.930Z,29.59
2022-08-14T16:36:54.170Z,29.55
2022-08-14T16:39:22.812Z,29.54
2022-08-14T16:41:53.696Z,29.49
2022-08-14T16:44:32.013Z,29.60
2022-08-14T16:47:04.057Z,29.64
2022-08-14T16:50:02.630Z,29.71
2022-08-14T16:52:26.296Z,29.70
2022-08-14T16:55:08.358Z,29.60
2022-08-14T16:57:47.630Z,29.64
2022-08-14T17:00:28.755Z,29.57
2022-08-14T17:03:11.467Z,29.53
2022-08-14T17:05:43.976Z,29.53
2022-08-14T17:08:33.330Z,29.49
2022-08-14T17:11:11.149Z,29.54
2022-08-14T17:13:58.595Z,29.40
2022-08-14T17:16:37.299Z,29.30
2022-08-14T17:19:11.571Z,29.27
2022-08-14T17:21:42.096Z,29.26
2022-08-14T17:24:56.789Z,29.24
2022-08-14T17:27:03.940Z,29.22
2022-08-14T17:29:33.355Z,28.98
2022-08-14T17:32:28.232Z,28.93
2022-08-14T17:34:55.394Z,28.92
2022-08-14T17:37:44.736Z,28.93
2022-08-14T17:40:16.006Z,28.82
2022-08-14T17:42:51.778Z,28.77
2022-08-14T17:45:39.112Z,28.71
2022-08-14T17:49:15.446Z,28.65
2022-08-14T17:51:12.414Z,28.56
2022-08-14T17:53:53.668Z,28.53
2022-08-14T17:56:31.508Z,28.38
2022-08-14T17:59:06.975Z,28.26
2022-08-14T18:01:38.685Z,28.18
2022-08-14T18:04:24.546Z,28.29
2022-08-14T18:06:57.714Z,28.17
2022-08-14T18:09:57.528Z,28.12
2022-08-14T18:12:32.898Z,28.13
2022-08-14T18:15:16.698Z,28.04
2022-08-14T18:17:52.845Z,28.00
2022-08-14T18:21:23.643Z,27.99
2022-08-14T18:23:10.677Z,27.87
2022-08-14T18:25:51.840Z,27.86
2022-08-14T18:28:51.354Z,27.77
2022-08-14T18:31:22.722Z,27.72
2022-08-14T18:33:56.326Z,27.66
2022-08-14T18:36:57.665Z,27.59
2022-08-14T18:39:32.700Z,27.57
2022-08-14T18:42:23.410Z,27.50
2022-08-14T18:44:50.657Z,27.36
2022-08-14T18:47:19.821Z,27.32
2022-08-14T18:49:57.651Z,27.23
2022-08-14T18:52:32.060Z,27.06
2022-08-14T18:55:20.803Z,26.97
2022-08-14T18:58:27.701Z,26.89
2022-08-14T19:00:56.141Z,26.84
2022-08-14T19:03:36.566Z,26.81
2022-08-14T19:06:09.033Z,26.66
2022-08-14T19:08:43.802Z,26.63
2022-08-14T19:11:40.706Z,26.54
2022-08-14T19:14:12.827Z,26.45
2022-08-14T19:16:53.531Z,26.33
2022-08-14T19:19:20.510Z,26.29
2022-08-14T19:21:57.186Z,26.22
2022-08-14T19:24:44.218Z,26.20
2022-08-14T19:27:23.665Z,26.18
2022-08-14T19:30:19.977Z,26.08
2022-08-14T19:32:57.098Z,26.09
2022-08-14T19:35:49.187Z,25.98
2022-08-14T19:38:47.846Z,25.99
2022-08-14T19:41:16.215Z,26.06
2022-08-14T19:43:56.453Z,25.90
2022-08-14T19:46:38.496Z,25.94
2022-08-14T19:49:14.674Z,25.99
2022-08-14T19:51:50.232Z,25.97
2022-08-14T19:54:17.292Z,25.90
2022-08-14T19:56:46.068Z,26.00
2022-08-14T19:59:19.307Z,25.82
2022-08-14T20:01:51.008Z,25.85
2022-08-14T20:04:46.195Z,25.84
2022-08-14T20:07:59.420Z,25.85
2022-08-14T20:11:03.590Z,25.81
2022-08-14T20:13:32.304Z,25.86
2022-08-14T20:16:06.735Z,25.84
2022-08-14T20:18:49.642Z,25.79
2022-08-14T20:21:18.551Z,25.65
2022-08-14T20:23:47.802Z,25.65
2022-08-14T20:26:31.735Z,25.59
2022-08-14T20:29:05.073Z,25.52
2022-08-14T20:31:37.519Z,25.49
2022-08-14T20:34:19.203Z,25.40
2022-08-14T20:37:01.873Z,25.34
2022-08-14T20:39:34.417Z,25.21
2022-08-14T20:42:31.198Z,25.12
2022-08-14T20:45:19.698Z,25.04
2022-08-14T20:47:55.938Z,24.93
2022-08-14T20:50:29.111Z,24.97
2022-08-14T20:53:06.645Z,24.85
2022-08-14T20:55:48.173Z,24.84
2022-08-14T20:58:42.042Z,24.93
2022-08-14T21:01:22.638Z,24.74
2022-08-14T21:04:12.052Z,24.75
2022-08-14T21:07:23.291Z,24.75
2022-08-14T21:10:04.483Z,24.69
2022-08-14T21:12:33.454Z,24.58
2022-08-14T21:15:02.498Z,24.56
2022-08-14T21:17:30.686Z,24.54
2022-08-14T21:19:59.778Z,24.53
2022-08-14T21:22:47.927Z,24.54
2022-08-14T21:25:15.363Z,24.69
2022-08-14T21:27:56.618Z,24.80
2022-08-14T21:30:46.828Z,24.82
2022-08-14T21:33:12.355Z,24.78
2022-08-14T21:35:46.787Z,24.83
2022-08-14T21:38:18.011Z,24.83
2022-08-14T21:40:50.366Z,24.76
2022-08-14T21:43:23.179Z,24.78
2022-08-14T21:45:58.787Z,24.68
2022-08-14T21:48:29.823Z,24.74
2022-08-14T21:51:54.391Z,24.71
2022-08-14T21:53:59.337Z,24.64
2022-08-14T21:56:37.139Z,24.83
2022-08-14T21:59:09.131Z,24.87
2022-08-14T22:02:00.676Z,24.79
2022-08-14T22:04:34.497Z,24.72
2022-08-14T22:07:10.683Z,24.71
2022-08-14T22:09:42.774Z,24.67
2022-08-14T22:12:57.202Z,24.73
2022-08-14T22:15:06.292Z,24.63
2022-08-14T22:17:34.362Z,24.65
2022-08-14T22:20:05.137Z,24.57
2022-08-14T22:22:32.249Z,24.54
2022-08-14T22:25:00.325Z,24.53
2022-08-14T22:27:32.169Z,24.49
2022-08-14T22:29:59.679Z,24.40
2022-08-14T22:32:56.150Z,24.30
2022-08-14T22:35:16.778Z,24.19
2022-08-14T22:37:44.513Z,24.09
2022-08-14T22:40:58.113Z,24.03
2022-08-14T22:43:08.289Z,23.86
2022-08-14T22:45:37.759Z,23.75
2022-08-14T22:48:10.775Z,23.63
2022-08-14T22:50:53.153Z,23.50
2022-08-14T22:53:21.791Z,23.35
2022-08-14T22:55:51.920Z,23.29
2022-08-14T22:58:19.569Z,23.21
2022-08-14T23:01:01.341Z,23.20
2022-08-14T23:03:34.818Z,23.18
2022-08-14T23:06:04.428Z,23.13
2022-08-14T23:08:59.123Z,23.08
2022-08-14T23:11:28.768Z,23.01
2022-08-14T23:13:55.481Z,22.96
2022-08-14T23:16:27.520Z,22.90
2022-08-14T23:18:54.528Z,22.88
2022-08-14T23:21:24.118Z,22.92
2022-08-14T23:23:54.973Z,22.90
2022-08-14T23:26:48.484Z,22.85
2022-08-14T23:29:11.514Z,22.77
2022-08-14T23:31:38.601Z,22.77
2022-08-14T23:34:08.255Z,22.82
2022-08-14T23:36:53.522Z,22.96
2022-08-14T23:39:32.709Z,23.11
2022-08-14T23:42:09.539Z,23.23
2022-08-14T23:44:39.015Z,23.29
2022-08-14T23:47:12.251Z,23.33
2022-08-14T23:50:00.411Z,23.36
2022-08-14T23:52:50.426Z,23.40
2022-08-14T23:55:23.780Z,23.38
2022-08-14T23:57:58.578Z,23.41
